sensor_id;sensor_type;location;lat;lon;timestamp;P1;durP1;ratioP1;P2;durP2;ratioP2
25667;SDS011;18003;-33.830;151.202;2023-03-03T00:01:50;4.62;;;2.87;;
25667;SDS011;18003;-33.830;151.202;2023-03-03T00:04:20;4.87;;;3.30;;
25667;SDS011;18003;-33.830;151.202;2023-03-03T00:06:50;4.55;;;2.95;;
25667;SDS011;18003;-33.830;151.202;2023-03-03T00:09:20;6.08;;;2.92;;
25667;SDS011;18003;-33.830;151.202;2023-03-03T00:11:53;5.28;;;2.87;;
25667;SDS011;18003;-33.830;151.202;2023-03-03T00:14:28;4.12;;;2.77;;
25667;SDS011;18003;-33.830;151.202;2023-03-03T00:17:00;4.17;;;2.70;;
25667;SDS011;18003;-33.830;151.202;2023-03-03T00:19:35;6.55;;;2.45;;
25667;SDS011;18003;-33.830;151.202;2023-03-03T00:22:06;4.53;;;2.50;;
25667;SDS011;18003;-33.830;151.202;2023-03-03T00:24:36;4.78;;;2.80;;
25667;SDS011;18003;-33.830;151.202;2023-03-03T00:29:59;5.17;;;3.00;;
25667;SDS011;18003;-33.830;151.202;2023-03-03T00:32:44;4.45;;;2.62;;
25667;SDS011;18003;-33.830;151.202;2023-03-03T00:38:11;4.78;;;2.77;;
25667;SDS011;18003;-33.830;151.202;2023-03-03T00:40:41;6.60;;;2.92;;
25667;SDS011;18003;-33.830;151.202;2023-03-03T00:43:33;3.75;;;2.83;;
25667;SDS011;18003;-33.830;151.202;2023-03-03T00:45:53;3.80;;;2.60;;
25667;SDS011;18003;-33.830;151.202;2023-03-03T00:48:28;4.55;;;3.00;;
25667;SDS011;18003;-33.830;151.202;2023-03-03T00:50:58;4.72;;;2.58;;
25667;SDS011;18003;-33.830;151.202;2023-03-03T00:53:29;3.75;;;2.77;;
25667;SDS011;18003;-33.830;151.202;2023-03-03T00:55:59;6.45;;;3.30;;
25667;SDS011;18003;-33.830;151.202;2023-03-03T00:58:29;4.12;;;2.80;;
25667;SDS011;18003;-33.830;151.202;2023-03-03T01:00:59;3.92;;;2.58;;
25667;SDS011;18003;-33.830;151.202;2023-03-03T01:03:29;3.37;;;2.60;;
25667;SDS011;18003;-33.830;151.202;2023-03-03T01:05:59;5.00;;;2.95;;
25667;SDS011;18003;-33.830;151.202;2023-03-03T01:08:29;3.20;;;2.90;;
25667;SDS011;18003;-33.830;151.202;2023-03-03T01:11:02;5.83;;;3.30;;
25667;SDS011;18003;-33.830;151.202;2023-03-03T01:13:37;4.53;;;2.85;;
25667;SDS011;18003;-33.830;151.202;2023-03-03T01:16:08;4.12;;;2.70;;
25667;SDS011;18003;-33.830;151.202;2023-03-03T01:18:39;4.78;;;3.00;;
25667;SDS011;18003;-33.830;151.202;2023-03-03T01:21:10;5.47;;;2.90;;
25667;SDS011;18003;-33.830;151.202;2023-03-03T01:23:40;4.90;;;2.87;;
25667;SDS011;18003;-33.830;151.202;2023-03-03T01:26:10;4.90;;;2.90;;
25667;SDS011;18003;-33.830;151.202;2023-03-03T01:28:40;4.58;;;2.70;;
25667;SDS011;18003;-33.830;151.202;2023-03-03T01:31:10;5.53;;;2.92;;
25667;SDS011;18003;-33.830;151.202;2023-03-03T01:33:40;4.97;;;2.98;;
25667;SDS011;18003;-33.830;151.202;2023-03-03T01:40:54;7.72;;;3.70;;
25667;SDS011;18003;-33.830;151.202;2023-03-03T01:43:29;5.55;;;2.98;;
25667;SDS011;18003;-33.830;151.202;2023-03-03T01:48:37;6.05;;;2.80;;
25667;SDS011;18003;-33.830;151.202;2023-03-03T01:51:23;3.52;;;2.40;;
25667;SDS011;18003;-33.830;151.202;2023-03-03T01:53:55;5.25;;;2.80;;
25667;SDS011;18003;-33.830;151.202;2023-03-03T01:56:26;6.00;;;2.80;;
25667;SDS011;18003;-33.830;151.202;2023-03-03T01:58:58;3.50;;;2.47;;
25667;SDS011;18003;-33.830;151.202;2023-03-03T02:01:31;9.40;;;3.42;;
25667;SDS011;18003;-33.830;151.202;2023-03-03T02:04:02;9.45;;;4.03;;
25667;SDS011;18003;-33.830;151.202;2023-03-03T02:06:43;10.85;;;4.83;;
25667;SDS011;18003;-33.830;151.202;2023-03-03T02:09:15;12.68;;;4.85;;
25667;SDS011;18003;-33.830;151.202;2023-03-03T02:11:51;12.50;;;5.60;;
25667;SDS011;18003;-33.830;151.202;2023-03-03T02:14:23;16.07;;;5.12;;
25667;SDS011;18003;-33.830;151.202;2023-03-03T02:16:53;49.20;;;7.47;;
25667;SDS011;18003;-33.830;151.202;2023-03-03T02:22:01;7.80;;;4.20;;
25667;SDS011;18003;-33.830;151.202;2023-03-03T02:27:09;7.33;;;3.72;;
25667;SDS011;18003;-33.830;151.202;2023-03-03T02:29:40;5.83;;;3.22;;
25667;SDS011;18003;-33.830;151.202;2023-03-03T02:32:10;5.65;;;3.30;;
25667;SDS011;18003;-33.830;151.202;2023-03-03T02:34:49;6.10;;;3.20;;
25667;SDS011;18003;-33.830;151.202;2023-03-03T02:37:20;6.37;;;2.98;;
25667;SDS011;18003;-33.830;151.202;2023-03-03T02:39:50;6.65;;;2.77;;
25667;SDS011;18003;-33.830;151.202;2023-03-03T02:42:25;4.47;;;2.50;;
25667;SDS011;18003;-33.830;151.202;2023-03-03T02:44:56;5.37;;;2.60;;
25667;SDS011;18003;-33.830;151.202;2023-03-03T02:47:25;7.03;;;3.02;;
25667;SDS011;18003;-33.830;151.202;2023-03-03T02:49:55;4.10;;;2.75;;
25667;SDS011;18003;-33.830;151.202;2023-03-03T02:52:26;6.97;;;2.55;;
25667;SDS011;18003;-33.830;151.202;2023-03-03T02:54:56;10.20;;;2.58;;
25667;SDS011;18003;-33.830;151.202;2023-03-03T02:57:26;6.37;;;2.40;;
25667;SDS011;18003;-33.830;151.202;2023-03-03T02:59:56;6.25;;;2.47;;
25667;SDS011;18003;-33.830;151.202;2023-03-03T03:02:26;4.40;;;2.17;;
25667;SDS011;18003;-33.830;151.202;2023-03-03T03:04:56;5.60;;;2.12;;
25667;SDS011;18003;-33.830;151.202;2023-03-03T03:07:26;4.03;;;2.30;;
25667;SDS011;18003;-33.830;151.202;2023-03-03T03:09:56;3.12;;;2.05;;
25667;SDS011;18003;-33.830;151.202;2023-03-03T03:12:26;3.70;;;2.15;;
25667;SDS011;18003;-33.830;151.202;2023-03-03T03:14:56;4.83;;;2.10;;
25667;SDS011;18003;-33.830;151.202;2023-03-03T03:17:26;3.15;;;2.20;;
25667;SDS011;18003;-33.830;151.202;2023-03-03T03:19:56;4.08;;;2.22;;
25667;SDS011;18003;-33.830;151.202;2023-03-03T03:22:27;3.98;;;2.37;;
25667;SDS011;18003;-33.830;151.202;2023-03-03T03:24:57;5.10;;;2.25;;
25667;SDS011;18003;-33.830;151.202;2023-03-03T03:27:27;4.28;;;2.50;;
25667;SDS011;18003;-33.830;151.202;2023-03-03T03:29:57;3.62;;;2.55;;
25667;SDS011;18003;-33.830;151.202;2023-03-03T03:32:27;4.60;;;3.10;;
25667;SDS011;18003;-33.830;151.202;2023-03-03T03:34:58;6.37;;;3.65;;
25667;SDS011;18003;-33.830;151.202;2023-03-03T03:37:28;5.85;;;3.72;;
25667;SDS011;18003;-33.830;151.202;2023-03-03T03:39:58;4.97;;;3.40;;
25667;SDS011;18003;-33.830;151.202;2023-03-03T03:42:28;7.53;;;3.50;;
25667;SDS011;18003;-33.830;151.202;2023-03-03T03:44:58;4.50;;;3.20;;
25667;SDS011;18003;-33.830;151.202;2023-03-03T03:47:28;5.08;;;2.92;;
25667;SDS011;18003;-33.830;151.202;2023-03-03T03:49:58;4.30;;;2.55;;
25667;SDS011;18003;-33.830;151.202;2023-03-03T03:52:28;3.37;;;2.45;;
25667;SDS011;18003;-33.830;151.202;2023-03-03T03:54:59;4.62;;;2.50;;
25667;SDS011;18003;-33.830;151.202;2023-03-03T03:57:29;4.83;;;2.50;;
25667;SDS011;18003;-33.830;151.202;2023-03-03T03:59:59;4.87;;;2.25;;
25667;SDS011;18003;-33.830;151.202;2023-03-03T04:02:29;3.27;;;2.50;;
25667;SDS011;18003;-33.830;151.202;2023-03-03T04:04:59;4.28;;;2.95;;
25667;SDS011;18003;-33.830;151.202;2023-03-03T04:07:29;5.05;;;2.75;;
25667;SDS011;18003;-33.830;151.202;2023-03-03T04:09:59;5.53;;;2.17;;
25667;SDS011;18003;-33.830;151.202;2023-03-03T04:12:29;4.37;;;2.45;;
25667;SDS011;18003;-33.830;151.202;2023-03-03T04:15:00;3.65;;;2.35;;
25667;SDS011;18003;-33.830;151.202;2023-03-03T04:17:31;2.83;;;2.27;;
25667;SDS011;18003;-33.830;151.202;2023-03-03T04:20:01;5.10;;;2.42;;
25667;SDS011;18003;-33.830;151.202;2023-03-03T04:22:32;3.98;;;2.00;;
25667;SDS011;18003;-33.830;151.202;2023-03-03T04:25:02;4.13;;;2.27;;
25667;SDS011;18003;-33.830;151.202;2023-03-03T04:27:34;3.83;;;1.90;;
25667;SDS011;18003;-33.830;151.202;2023-03-03T04:30:04;3.60;;;1.60;;
25667;SDS011;18003;-33.830;151.202;2023-03-03T04:32:35;2.65;;;1.60;;
25667;SDS011;18003;-33.830;151.202;2023-03-03T04:35:05;2.12;;;1.70;;
25667;SDS011;18003;-33.830;151.202;2023-03-03T04:37:36;3.98;;;1.85;;
25667;SDS011;18003;-33.830;151.202;2023-03-03T04:40:06;1.63;;;1.53;;
25667;SDS011;18003;-33.830;151.202;2023-03-03T04:42:37;3.95;;;1.70;;
25667;SDS011;18003;-33.830;151.202;2023-03-03T04:45:07;2.22;;;1.50;;
25667;SDS011;18003;-33.830;151.202;2023-03-03T04:47:38;1.40;;;1.30;;
25667;SDS011;18003;-33.830;151.202;2023-03-03T04:50:09;8.15;;;1.50;;
25667;SDS011;18003;-33.830;151.202;2023-03-03T04:52:39;2.87;;;1.53;;
25667;SDS011;18003;-33.830;151.202;2023-03-03T04:55:09;1.80;;;1.50;;
25667;SDS011;18003;-33.830;151.202;2023-03-03T04:57:40;3.33;;;1.20;;
25667;SDS011;18003;-33.830;151.202;2023-03-03T05:00:10;1.87;;;1.42;;
25667;SDS011;18003;-33.830;151.202;2023-03-03T05:02:42;2.17;;;1.22;;
25667;SDS011;18003;-33.830;151.202;2023-03-03T05:05:11;1.98;;;1.32;;
25667;SDS011;18003;-33.830;151.202;2023-03-03T05:07:41;3.00;;;1.40;;
25667;SDS011;18003;-33.830;151.202;2023-03-03T05:10:11;2.55;;;1.20;;
25667;SDS011;18003;-33.830;151.202;2023-03-03T05:12:42;3.10;;;1.65;;
25667;SDS011;18003;-33.830;151.202;2023-03-03T05:15:12;3.27;;;1.57;;
25667;SDS011;18003;-33.830;151.202;2023-03-03T05:17:42;6.97;;;1.67;;
25667;SDS011;18003;-33.830;151.202;2023-03-03T05:20:12;2.22;;;1.37;;
25667;SDS011;18003;-33.830;151.202;2023-03-03T05:22:42;3.20;;;1.72;;
25667;SDS011;18003;-33.830;151.202;2023-03-03T05:25:12;1.85;;;1.50;;
25667;SDS011;18003;-33.830;151.202;2023-03-03T05:27:42;2.33;;;1.32;;
25667;SDS011;18003;-33.830;151.202;2023-03-03T05:30:13;7.00;;;1.50;;
25667;SDS011;18003;-33.830;151.202;2023-03-03T05:32:43;2.25;;;1.30;;
25667;SDS011;18003;-33.830;151.202;2023-03-03T05:35:13;2.05;;;1.25;;
25667;SDS011;18003;-33.830;151.202;2023-03-03T05:37:43;2.20;;;1.30;;
25667;SDS011;18003;-33.830;151.202;2023-03-03T05:40:14;2.87;;;1.30;;
25667;SDS011;18003;-33.830;151.202;2023-03-03T05:42:44;1.72;;;1.30;;
25667;SDS011;18003;-33.830;151.202;2023-03-03T05:45:14;1.42;;;1.20;;
25667;SDS011;18003;-33.830;151.202;2023-03-03T05:47:45;1.40;;;1.07;;
25667;SDS011;18003;-33.830;151.202;2023-03-03T05:50:17;1.60;;;1.10;;
25667;SDS011;18003;-33.830;151.202;2023-03-03T05:52:52;1.17;;;1.07;;
25667;SDS011;18003;-33.830;151.202;2023-03-03T05:55:18;2.37;;;1.20;;
25667;SDS011;18003;-33.830;151.202;2023-03-03T05:57:49;1.98;;;1.07;;
25667;SDS011;18003;-33.830;151.202;2023-03-03T06:00:19;1.57;;;1.00;;
25667;SDS011;18003;-33.830;151.202;2023-03-03T06:02:49;2.33;;;1.40;;
25667;SDS011;18003;-33.830;151.202;2023-03-03T06:05:19;2.62;;;1.30;;
25667;SDS011;18003;-33.830;151.202;2023-03-03T06:07:49;2.00;;;1.20;;
25667;SDS011;18003;-33.830;151.202;2023-03-03T06:10:19;6.12;;;1.77;;
25667;SDS011;18003;-33.830;151.202;2023-03-03T06:12:49;2.83;;;1.30;;
25667;SDS011;18003;-33.830;151.202;2023-03-03T06:15:22;2.72;;;1.20;;
25667;SDS011;18003;-33.830;151.202;2023-03-03T06:17:51;5.03;;;1.40;;
25667;SDS011;18003;-33.830;151.202;2023-03-03T06:20:21;5.87;;;1.50;;
25667;SDS011;18003;-33.830;151.202;2023-03-03T06:22:51;5.92;;;1.40;;
25667;SDS011;18003;-33.830;151.202;2023-03-03T06:25:21;3.17;;;1.00;;
25667;SDS011;18003;-33.830;151.202;2023-03-03T06:27:51;2.92;;;1.22;;
25667;SDS011;18003;-33.830;151.202;2023-03-03T06:30:21;2.33;;;1.20;;
25667;SDS011;18003;-33.830;151.202;2023-03-03T06:32:52;3.85;;;1.50;;
25667;SDS011;18003;-33.830;151.202;2023-03-03T06:35:22;3.15;;;1.50;;
25667;SDS011;18003;-33.830;151.202;2023-03-03T06:37:52;6.17;;;1.60;;
25667;SDS011;18003;-33.830;151.202;2023-03-03T06:40:22;6.70;;;1.60;;
25667;SDS011;18003;-33.830;151.202;2023-03-03T06:42:52;5.58;;;1.57;;
25667;SDS011;18003;-33.830;151.202;2023-03-03T06:45:22;4.83;;;1.17;;
25667;SDS011;18003;-33.830;151.202;2023-03-03T06:47:52;4.45;;;1.35;;
25667;SDS011;18003;-33.830;151.202;2023-03-03T06:50:22;1.92;;;1.30;;
25667;SDS011;18003;-33.830;151.202;2023-03-03T06:52:58;3.87;;;1.47;;
25667;SDS011;18003;-33.830;151.202;2023-03-03T06:55:30;3.22;;;1.32;;
25667;SDS011;18003;-33.830;151.202;2023-03-03T06:58:00;3.98;;;1.75;;
25667;SDS011;18003;-33.830;151.202;2023-03-03T07:00:31;3.50;;;1.52;;
25667;SDS011;18003;-33.830;151.202;2023-03-03T07:03:07;2.20;;;1.50;;
25667;SDS011;18003;-33.830;151.202;2023-03-03T07:05:36;2.58;;;1.50;;
25667;SDS011;18003;-33.830;151.202;2023-03-03T07:08:12;2.72;;;1.20;;
25667;SDS011;18003;-33.830;151.202;2023-03-03T07:10:38;3.10;;;1.50;;
25667;SDS011;18003;-33.830;151.202;2023-03-03T07:13:19;2.27;;;1.40;;
25667;SDS011;18003;-33.830;151.202;2023-03-03T07:15:52;2.40;;;1.45;;
25667;SDS011;18003;-33.830;151.202;2023-03-03T07:21:15;1.75;;;1.50;;
25667;SDS011;18003;-33.830;151.202;2023-03-03T07:23:46;2.98;;;1.40;;
25667;SDS011;18003;-33.830;151.202;2023-03-03T07:26:24;3.37;;;1.70;;
25667;SDS011;18003;-33.830;151.202;2023-03-03T07:28:54;2.52;;;1.67;;
25667;SDS011;18003;-33.830;151.202;2023-03-03T07:31:38;2.22;;;1.67;;
25667;SDS011;18003;-33.830;151.202;2023-03-03T07:37:20;3.58;;;1.70;;
25667;SDS011;18003;-33.830;151.202;2023-03-03T07:39:54;2.87;;;1.70;;
25667;SDS011;18003;-33.830;151.202;2023-03-03T07:42:25;2.57;;;1.60;;
25667;SDS011;18003;-33.830;151.202;2023-03-03T07:44:57;3.92;;;1.70;;
25667;SDS011;18003;-33.830;151.202;2023-03-03T07:47:30;2.25;;;1.57;;
25667;SDS011;18003;-33.830;151.202;2023-03-03T07:50:14;2.30;;;1.50;;
25667;SDS011;18003;-33.830;151.202;2023-03-03T07:52:49;2.25;;;1.67;;
25667;SDS011;18003;-33.830;151.202;2023-03-03T08:03:48;3.22;;;1.80;;
25667;SDS011;18003;-33.830;151.202;2023-03-03T08:11:58;3.90;;;1.98;;
25667;SDS011;18003;-33.830;151.202;2023-03-03T08:14:29;6.10;;;2.10;;
25667;SDS011;18003;-33.830;151.202;2023-03-03T08:17:22;4.65;;;2.00;;
25667;SDS011;18003;-33.830;151.202;2023-03-03T08:19:53;4.72;;;1.90;;
25667;SDS011;18003;-33.830;151.202;2023-03-03T08:22:33;4.83;;;1.87;;
25667;SDS011;18003;-33.830;151.202;2023-03-03T08:25:04;4.05;;;2.22;;
25667;SDS011;18003;-33.830;151.202;2023-03-03T08:27:34;3.80;;;2.30;;
25667;SDS011;18003;-33.830;151.202;2023-03-03T08:30:04;7.03;;;2.30;;
25667;SDS011;18003;-33.830;151.202;2023-03-03T08:32:35;2.50;;;2.12;;
25667;SDS011;18003;-33.830;151.202;2023-03-03T08:35:05;3.22;;;2.37;;
25667;SDS011;18003;-33.830;151.202;2023-03-03T08:37:35;3.65;;;2.33;;
25667;SDS011;18003;-33.830;151.202;2023-03-03T08:40:06;3.55;;;2.05;;
25667;SDS011;18003;-33.830;151.202;2023-03-03T08:42:36;4.45;;;2.52;;
25667;SDS011;18003;-33.830;151.202;2023-03-03T08:45:06;5.33;;;2.42;;
25667;SDS011;18003;-33.830;151.202;2023-03-03T08:47:37;3.05;;;2.08;;
25667;SDS011;18003;-33.830;151.202;2023-03-03T08:50:07;2.97;;;2.63;;
25667;SDS011;18003;-33.830;151.202;2023-03-03T08:52:37;3.00;;;2.50;;
25667;SDS011;18003;-33.830;151.202;2023-03-03T08:55:08;2.60;;;2.37;;
25667;SDS011;18003;-33.830;151.202;2023-03-03T08:57:39;4.83;;;2.50;;
25667;SDS011;18003;-33.830;151.202;2023-03-03T09:00:10;7.92;;;3.10;;
25667;SDS011;18003;-33.830;151.202;2023-03-03T09:02:41;5.67;;;2.40;;
25667;SDS011;18003;-33.830;151.202;2023-03-03T09:05:12;6.75;;;3.08;;
25667;SDS011;18003;-33.830;151.202;2023-03-03T09:07:43;4.80;;;3.17;;
25667;SDS011;18003;-33.830;151.202;2023-03-03T09:10:14;6.03;;;3.20;;
25667;SDS011;18003;-33.830;151.202;2023-03-03T09:12:45;6.53;;;3.35;;
25667;SDS011;18003;-33.830;151.202;2023-03-03T09:17:59;5.83;;;3.00;;
25667;SDS011;18003;-33.830;151.202;2023-03-03T09:24:04;7.72;;;2.83;;
25667;SDS011;18003;-33.830;151.202;2023-03-03T09:26:45;6.47;;;2.90;;
25667;SDS011;18003;-33.830;151.202;2023-03-03T09:31:57;6.92;;;2.40;;
25667;SDS011;18003;-33.830;151.202;2023-03-03T09:34:41;5.78;;;2.20;;
25667;SDS011;18003;-33.830;151.202;2023-03-03T09:37:34;6.15;;;2.20;;
25667;SDS011;18003;-33.830;151.202;2023-03-03T09:39:43;6.35;;;2.45;;
25667;SDS011;18003;-33.830;151.202;2023-03-03T09:42:19;5.00;;;2.30;;
25667;SDS011;18003;-33.830;151.202;2023-03-03T09:58:27;4.47;;;2.75;;
25667;SDS011;18003;-33.830;151.202;2023-03-03T10:01:05;6.20;;;2.60;;
25667;SDS011;18003;-33.830;151.202;2023-03-03T10:03:39;2.70;;;2.30;;
25667;SDS011;18003;-33.830;151.202;2023-03-03T10:06:15;3.35;;;2.30;;
25667;SDS011;18003;-33.830;151.202;2023-03-03T10:08:48;6.10;;;2.50;;
25667;SDS011;18003;-33.830;151.202;2023-03-03T10:11:20;5.15;;;2.70;;
25667;SDS011;18003;-33.830;151.202;2023-03-03T10:17:02;5.00;;;2.80;;
25667;SDS011;18003;-33.830;151.202;2023-03-03T10:28:06;4.03;;;2.60;;
25667;SDS011;18003;-33.830;151.202;2023-03-03T10:30:44;3.72;;;2.70;;
25667;SDS011;18003;-33.830;151.202;2023-03-03T10:38:53;5.22;;;2.72;;
25667;SDS011;18003;-33.830;151.202;2023-03-03T10:53:09;5.67;;;2.77;;
25667;SDS011;18003;-33.830;151.202;2023-03-03T11:01:37;3.17;;;2.20;;
25667;SDS011;18003;-33.830;151.202;2023-03-03T11:04:23;3.37;;;2.40;;
25667;SDS011;18003;-33.830;151.202;2023-03-03T11:07:12;3.58;;;2.40;;
25667;SDS011;18003;-33.830;151.202;2023-03-03T11:09:53;9.40;;;2.50;;
25667;SDS011;18003;-33.830;151.202;2023-03-03T11:12:47;5.37;;;2.30;;
25667;SDS011;18003;-33.830;151.202;2023-03-03T11:18:19;5.40;;;2.40;;
25667;SDS011;18003;-33.830;151.202;2023-03-03T11:23:35;5.10;;;2.17;;
25667;SDS011;18003;-33.830;151.202;2023-03-03T11:29:06;2.72;;;2.40;;
25667;SDS011;18003;-33.830;151.202;2023-03-03T11:31:52;3.10;;;2.33;;
25667;SDS011;18003;-33.830;151.202;2023-03-03T11:37:09;2.45;;;2.25;;
25667;SDS011;18003;-33.830;151.202;2023-03-03T11:39:42;4.28;;;2.27;;
25667;SDS011;18003;-33.830;151.202;2023-03-03T11:44:58;3.98;;;2.35;;
25667;SDS011;18003;-33.830;151.202;2023-03-03T11:47:36;3.40;;;2.50;;
25667;SDS011;18003;-33.830;151.202;2023-03-03T11:50:22;2.83;;;2.47;;
25667;SDS011;18003;-33.830;151.202;2023-03-03T11:53:18;7.50;;;2.67;;
25667;SDS011;18003;-33.830;151.202;2023-03-03T11:55:43;5.22;;;2.40;;
25667;SDS011;18003;-33.830;151.202;2023-03-03T11:58:35;6.08;;;2.40;;
25667;SDS011;18003;-33.830;151.202;2023-03-03T12:01:04;3.12;;;2.65;;
25667;SDS011;18003;-33.830;151.202;2023-03-03T12:09:17;2.50;;;2.30;;
25667;SDS011;18003;-33.830;151.202;2023-03-03T12:11:54;4.28;;;2.40;;
25667;SDS011;18003;-33.830;151.202;2023-03-03T12:19:59;3.60;;;2.60;;
25667;SDS011;18003;-33.830;151.202;2023-03-03T12:22:31;3.77;;;2.62;;
25667;SDS011;18003;-33.830;151.202;2023-03-03T12:36:20;3.08;;;2.30;;
25667;SDS011;18003;-33.830;151.202;2023-03-03T12:39:07;3.25;;;2.12;;
25667;SDS011;18003;-33.830;151.202;2023-03-03T12:41:48;3.77;;;2.55;;
25667;SDS011;18003;-33.830;151.202;2023-03-03T12:44:34;3.90;;;2.35;;
25667;SDS011;18003;-33.830;151.202;2023-03-03T12:47:00;5.08;;;2.33;;
25667;SDS011;18003;-33.830;151.202;2023-03-03T12:58:07;3.70;;;2.58;;
25667;SDS011;18003;-33.830;151.202;2023-03-03T13:00:57;5.15;;;2.30;;
25667;SDS011;18003;-33.830;151.202;2023-03-03T13:05:43;5.30;;;2.37;;
25667;SDS011;18003;-33.830;151.202;2023-03-03T13:11:02;4.33;;;2.45;;
25667;SDS011;18003;-33.830;151.202;2023-03-03T13:13:46;7.03;;;2.33;;
25667;SDS011;18003;-33.830;151.202;2023-03-03T13:16:14;2.83;;;2.17;;
25667;SDS011;18003;-33.830;151.202;2023-03-03T13:18:48;6.92;;;2.40;;
25667;SDS011;18003;-33.830;151.202;2023-03-03T13:21:20;4.70;;;2.15;;
25667;SDS011;18003;-33.830;151.202;2023-03-03T13:23:54;3.55;;;2.40;;
25667;SDS011;18003;-33.830;151.202;2023-03-03T13:26:43;4.92;;;2.72;;
25667;SDS011;18003;-33.830;151.202;2023-03-03T13:29:31;4.72;;;2.30;;
25667;SDS011;18003;-33.830;151.202;2023-03-03T13:32:14;3.60;;;2.20;;
25667;SDS011;18003;-33.830;151.202;2023-03-03T13:34:48;5.12;;;2.65;;
25667;SDS011;18003;-33.830;151.202;2023-03-03T13:40:00;3.65;;;2.27;;
25667;SDS011;18003;-33.830;151.202;2023-03-03T13:42:54;5.60;;;2.55;;
25667;SDS011;18003;-33.830;151.202;2023-03-03T13:59:09;4.65;;;2.40;;
25667;SDS011;18003;-33.830;151.202;2023-03-03T14:07:38;4.83;;;2.12;;
25667;SDS011;18003;-33.830;151.202;2023-03-03T14:10:12;5.42;;;2.47;;
25667;SDS011;18003;-33.830;151.202;2023-03-03T14:12:50;3.65;;;2.37;;
25667;SDS011;18003;-33.830;151.202;2023-03-03T14:16:20;6.50;;;2.60;;
25667;SDS011;18003;-33.830;151.202;2023-03-03T14:18:17;3.58;;;2.30;;
25667;SDS011;18003;-33.830;151.202;2023-03-03T14:21:10;5.87;;;2.50;;
25667;SDS011;18003;-33.830;151.202;2023-03-03T14:23:58;4.95;;;2.58;;
25667;SDS011;18003;-33.830;151.202;2023-03-03T14:31:58;5.83;;;2.37;;
25667;SDS011;18003;-33.830;151.202;2023-03-03T14:34:33;4.87;;;2.50;;
25667;SDS011;18003;-33.830;151.202;2023-03-03T14:40:02;5.90;;;2.58;;
25667;SDS011;18003;-33.830;151.202;2023-03-03T14:42:32;6.12;;;2.60;;
25667;SDS011;18003;-33.830;151.202;2023-03-03T14:45:19;4.10;;;2.40;;
25667;SDS011;18003;-33.830;151.202;2023-03-03T14:47:45;3.65;;;2.60;;
25667;SDS011;18003;-33.830;151.202;2023-03-03T14:50:37;5.50;;;2.80;;
25667;SDS011;18003;-33.830;151.202;2023-03-03T14:53:13;3.40;;;2.45;;
25667;SDS011;18003;-33.830;151.202;2023-03-03T14:55:44;8.18;;;2.45;;
25667;SDS011;18003;-33.830;151.202;2023-03-03T14:58:24;8.40;;;2.70;;
25667;SDS011;18003;-33.830;151.202;2023-03-03T15:01:41;5.70;;;2.72;;
25667;SDS011;18003;-33.830;151.202;2023-03-03T15:03:46;4.62;;;2.67;;
25667;SDS011;18003;-33.830;151.202;2023-03-03T15:12:19;6.75;;;2.77;;
25667;SDS011;18003;-33.830;151.202;2023-03-03T15:20:34;3.87;;;2.87;;
25667;SDS011;18003;-33.830;151.202;2023-03-03T15:28:53;4.20;;;2.40;;
25667;SDS011;18003;-33.830;151.202;2023-03-03T15:31:30;4.75;;;2.50;;
25667;SDS011;18003;-33.830;151.202;2023-03-03T15:34:16;6.78;;;2.70;;
25667;SDS011;18003;-33.830;151.202;2023-03-03T15:42:10;9.05;;;3.00;;
25667;SDS011;18003;-33.830;151.202;2023-03-03T15:44:49;6.40;;;2.70;;
25667;SDS011;18003;-33.830;151.202;2023-03-03T15:50:29;5.90;;;2.67;;
25667;SDS011;18003;-33.830;151.202;2023-03-03T16:01:33;6.30;;;2.67;;
25667;SDS011;18003;-33.830;151.202;2023-03-03T16:04:27;5.55;;;2.90;;
25667;SDS011;18003;-33.830;151.202;2023-03-03T16:09:41;4.25;;;2.90;;
25667;SDS011;18003;-33.830;151.202;2023-03-03T16:20:59;4.70;;;2.98;;
25667;SDS011;18003;-33.830;151.202;2023-03-03T16:29:02;4.35;;;3.00;;
25667;SDS011;18003;-33.830;151.202;2023-03-03T16:31:42;5.33;;;3.25;;
25667;SDS011;18003;-33.830;151.202;2023-03-03T16:42:30;5.40;;;3.02;;
25667;SDS011;18003;-33.830;151.202;2023-03-03T16:45:05;6.50;;;2.83;;
25667;SDS011;18003;-33.830;151.202;2023-03-03T16:50:34;4.62;;;2.85;;
25667;SDS011;18003;-33.830;151.202;2023-03-03T16:56:24;5.10;;;2.95;;
25667;SDS011;18003;-33.830;151.202;2023-03-03T16:59:15;5.22;;;2.72;;
25667;SDS011;18003;-33.830;151.202;2023-03-03T17:01:54;8.30;;;3.00;;
25667;SDS011;18003;-33.830;151.202;2023-03-03T17:07:29;5.22;;;3.12;;
25667;SDS011;18003;-33.830;151.202;2023-03-03T17:22:07;4.75;;;2.55;;
25667;SDS011;18003;-33.830;151.202;2023-03-03T17:26:41;6.93;;;2.80;;
25667;SDS011;18003;-33.830;151.202;2023-03-03T17:40:42;3.83;;;2.47;;
25667;SDS011;18003;-33.830;151.202;2023-03-03T17:45:58;3.90;;;2.45;;
25667;SDS011;18003;-33.830;151.202;2023-03-03T17:48:33;5.78;;;2.90;;
25667;SDS011;18003;-33.830;151.202;2023-03-03T17:51:35;5.95;;;2.72;;
25667;SDS011;18003;-33.830;151.202;2023-03-03T17:54:21;4.55;;;2.75;;
25667;SDS011;18003;-33.830;151.202;2023-03-03T17:57:13;6.80;;;3.10;;
25667;SDS011;18003;-33.830;151.202;2023-03-03T18:08:42;9.47;;;2.87;;
25667;SDS011;18003;-33.830;151.202;2023-03-03T18:11:18;4.87;;;2.60;;
25667;SDS011;18003;-33.830;151.202;2023-03-03T18:22:05;6.90;;;2.92;;
25667;SDS011;18003;-33.830;151.202;2023-03-03T18:24:52;5.03;;;2.55;;
25667;SDS011;18003;-33.830;151.202;2023-03-03T18:27:27;4.47;;;2.70;;
25667;SDS011;18003;-33.830;151.202;2023-03-03T18:40:49;8.90;;;2.60;;
25667;SDS011;18003;-33.830;151.202;2023-03-03T19:04:54;4.28;;;2.60;;
25667;SDS011;18003;-33.830;151.202;2023-03-03T19:10:04;3.62;;;2.52;;
25667;SDS011;18003;-33.830;151.202;2023-03-03T19:18:02;5.78;;;2.95;;
25667;SDS011;18003;-33.830;151.202;2023-03-03T19:20:57;3.25;;;2.92;;
25667;SDS011;18003;-33.830;151.202;2023-03-03T19:23:46;5.12;;;2.95;;
25667;SDS011;18003;-33.830;151.202;2023-03-03T19:31:52;5.62;;;3.33;;
25667;SDS011;18003;-33.830;151.202;2023-03-03T19:37:17;5.20;;;2.80;;
25667;SDS011;18003;-33.830;151.202;2023-03-03T19:40:10;4.33;;;3.08;;
25667;SDS011;18003;-33.830;151.202;2023-03-03T19:51:10;6.22;;;3.20;;
25667;SDS011;18003;-33.830;151.202;2023-03-03T19:56:31;8.33;;;3.40;;
25667;SDS011;18003;-33.830;151.202;2023-03-03T20:07:44;4.47;;;3.33;;
25667;SDS011;18003;-33.830;151.202;2023-03-03T20:18:34;7.15;;;3.20;;
25667;SDS011;18003;-33.830;151.202;2023-03-03T20:35:11;5.90;;;3.20;;
25667;SDS011;18003;-33.830;151.202;2023-03-03T20:43:36;8.10;;;3.40;;
25667;SDS011;18003;-33.830;151.202;2023-03-03T20:46:20;6.67;;;3.52;;
25667;SDS011;18003;-33.830;151.202;2023-03-03T20:54:20;5.87;;;3.62;;
25667;SDS011;18003;-33.830;151.202;2023-03-03T20:56:52;6.30;;;3.72;;
25667;SDS011;18003;-33.830;151.202;2023-03-03T21:00:07;6.13;;;3.43;;
25667;SDS011;18003;-33.830;151.202;2023-03-03T21:05:21;6.85;;;3.80;;
25667;SDS011;18003;-33.830;151.202;2023-03-03T21:07:57;6.83;;;4.12;;
25667;SDS011;18003;-33.830;151.202;2023-03-03T21:10:32;6.35;;;4.00;;
25667;SDS011;18003;-33.830;151.202;2023-03-03T21:13:19;6.67;;;3.77;;
25667;SDS011;18003;-33.830;151.202;2023-03-03T21:16:08;5.42;;;3.35;;
25667;SDS011;18003;-33.830;151.202;2023-03-03T21:18:35;5.97;;;3.70;;
25667;SDS011;18003;-33.830;151.202;2023-03-03T21:21:06;5.37;;;3.90;;
25667;SDS011;18003;-33.830;151.202;2023-03-03T21:23:37;6.60;;;4.03;;